Rincon, GA (31326)

10:47 AM EDT on August 02, 2015 (GMT -0400)
Oxford Subdivision | | Change Station
CLOSE
Current Station
Personal Weather Station
Location: Rincon, GA
Elevation: 66 ft
Nearby Weather Stations

Elev 66 ft 32.29 °N, 81.23 °W | Updated 7 minutes ago

Overcast
Overcast
84.6 °F
Feels Like 98 °F
N
2.2
Wind Variable Wind from SSE

Today
High -- | Low -- °F
--% Chance of Precip.
Yesterday
High -- | Low -- °F
Precip. -- in
6:40 AM 8:21 PM
Waning Gibbous, 93% visible
Pressure 29.93 in
Visibility 10.0 miles
Clouds Scattered Clouds 1000 ft
Scattered Clouds 1500 ft
Mostly Cloudy 6500 ft
Mostly Cloudy 13000 ft
Heat Index 98 °F
Dew Point 80 °F
Humidity 85%
Rainfall 0.00 in
Snow Depth Not available.
UV 4 out of 12
Pollen 3.30 out of 12
Air Quality Not available.
Flu Activity Not available.
SPECI KSAV 021432Z VRB03KT 10SM SCT010CB SCT015 BKN065 BKN130 27/23 A2993 RMK AO2 CB SE MOV N

More Conditions Fewer Conditions

Pressure 29.93 in
Visibility 10.0 miles
Clouds Scattered Clouds 1000 ft
Scattered Clouds 1500 ft
Mostly Cloudy 6500 ft
Mostly Cloudy 13000 ft
Heat Index 98 °F
Dew Point 80 °F
Humidity 85%
Rainfall 0.00 in
Snow Depth Not available.
UV 4 out of 12
Pollen 3.30 out of 12
Air Quality Not available.
Flu Activity Not available.
SPECI KSAV 021432Z VRB03KT 10SM SCT010CB SCT015 BKN065 BKN130 27/23 A2993 RMK AO2 CB SE MOV N

More Conditions Fewer Conditions

10-Day Weather Forecast

×

Almanac

Astronomy

Aug. 02, 2015 Rise Set
Actual Time
Civil Twilight
Nautical Twilight
Astronomical Twilight
Moon
Length of Visible Light
Length of Day
Tomorrow will be .
, % of the Moon is Illuminated

Today's Extremes

State Highs State Lows

Community

WunderPhotos

Upload Photos

1,843,268 photos uploaded!

WunderBlogs® & News

Nearby

Air Quality

  Air Quality AQ Index Pollutant
Not available.

Snow Depth

Station Depth Elevation

Earthquake Activity

City Distance Mag. Time & Date
Minimum magnitude displayed is 2.5.

Coastal Water Temperatures

Place Temperature

Stations

Nearby Weather Stations

Station Location Temp. Windchill Dew Point Humidity Wind Precip. Elev Updated Type